San Luis, AZ

5:14 AM MST en Enero 25, 2015 (GMT -0700)
YCWUA International Boundary Pumping Plant | Change Station
CLOSE
Current Station
Estación meteorológica personal
Location: San Luis, AZ
Altura: 79 ft
Estaciones meteorológicas cercanas

Alt 79 ft 32.49 °N, 114.79 °W | Updated 35 seconds ago

Parcialmente nublado
Parcialmente nublado
47.1 ° F
Sensación térmica 47 ° F
N
0.0
Viento Variable Viento desde ONO
Gusts 0.0 mph

Hoy
Alta -- | Baja -- ° F
--% Posibilidad de precipitaciones
Ayer
Alta -- | Baja -- ° F
Precip. -- pul
7:37 AM 6:05 PM
Creciente, 31% visible
Presión 30.04 pul
Visibilidad 10.0 Millas
Nubes Despejado
Vientos helados 47 ° F
Punto de rocío 29 ° F
Humedad 49%
Precipitaciones 0.00 pul
Espesor de la nieve No disponible.
UV 0 de una escala de 12
Polen 5.70 de una escala de 12
Calidad del aire No disponible.
Flu Activity No disponible.
METAR KNYL 251157Z AUTO 04005KT 10SM CLR 12/M05 A3005 RMK AO2 SLP173 T01221050 10172 20111 58002 $

More Conditions Fewer Conditions

Presión 30.04 pul
Visibilidad 10.0 Millas
Nubes Despejado
Vientos helados 47 ° F
Punto de rocío 29 ° F
Humedad 49%
Precipitaciones 0.00 pul
Espesor de la nieve No disponible.
UV 0 de una escala de 12
Polen 5.70 de una escala de 12
Calidad del aire No disponible.
Flu Activity No disponible.
METAR KNYL 251157Z AUTO 04005KT 10SM CLR 12/M05 A3005 RMK AO2 SLP173 T01221050 10172 20111 58002 $

More Conditions Fewer Conditions

10-Day Weather Forecast

Almanac

Astronomía

Jan. 25, 2015 Salida Puesta
Hora real
Crepúsculo civil
Crepúsculo náutico
Crepúsculo astronómico
Luna
Horas de luz
Horas de luz
Tomorrow will be .
, % of the Moon is Illuminated

Extremos de hoy

Máximos del estado Bajos del estado

Community

WunderPhotos

Upload Photos

1,789,873 ¡fotos cargadas!

WunderBlogs® & News

Nearby

Calidad del aire

  Calidad del aire Índice AQ Contaminante
Not available.

Grosos de nieve

Estación Profundido Altura

Actividad de terremotos

Ciudad Distance Mag. Tiempo y dato
Magnitud mínima muestra es 2,5.

Temperaturas de aguas costeras

Lugar Temperatura

Estaciones meteorológicas cercanas